Time;durP1;ratioP1;P1;durP2;ratioP2;P2;SDS_P1;SDS_P2;PMS_P1;PMS_P2;Temp;Humidity;BMP_temperature;BMP_pressure;BME280_temperature;BME280_humidity;BME280_pressure;Samples;Min_cycle;Max_cycle;Signal;HPM_P1;HPM_P2
2022/08/16 00:01:49;;;;;;;13.80;9.70;;;;;;;20.72;72.00;100416.00;5044767;28;20597;-81
2022/08/16 00:04:15;;;;;;;13.77;9.30;;;;;;;20.77;72.29;100437.16;5043800;28;20086;-86
2022/08/16 00:06:41;;;;;;;11.85;8.90;;;;;;;20.62;73.39;100443.59;5043653;28;20040;-85
2022/08/16 00:09:07;;;;;;;17.08;11.07;;;;;;;20.73;72.42;100436.09;5044145;28;20170;-83
2022/08/16 00:11:33;;;;;;;14.52;10.30;;;;;;;20.62;73.04;100445.53;5043505;28;20029;-84
2022/08/16 00:13:59;;;;;;;15.02;11.07;;;;;;;20.63;72.99;100444.41;5034903;28;20146;-81
2022/08/16 00:16:28;;;;;;;16.80;12.30;;;;;;;20.65;73.19;100443.00;5025027;28;20480;-82
2022/08/16 00:18:53;;;;;;;16.10;11.95;;;;;;;20.64;73.07;100446.06;5043958;28;20485;-84
2022/08/16 00:21:18;;;;;;;16.15;12.60;;;;;;;20.65;73.14;100442.19;5043569;28;20094;-86
2022/08/16 00:23:44;;;;;;;16.33;11.70;;;;;;;20.62;73.11;100453.78;5044290;28;20135;-82
2022/08/16 00:26:09;;;;;;;14.55;11.85;;;;;;;20.53;73.96;100456.34;5044044;28;20682;-83
2022/08/16 00:28:35;;;;;;;14.57;10.52;;;;;;;20.37;74.07;100450.97;5043468;28;20144;-83
2022/08/16 00:31:01;;;;;;;15.48;11.43;;;;;;;20.43;74.02;100451.75;5044202;28;20126;-82
2022/08/16 00:33:27;;;;;;;14.70;11.02;;;;;;;20.29;74.04;100440.56;5043879;28;20384;-83
2022/08/16 00:35:52;;;;;;;17.33;12.57;;;;;;;20.32;74.20;100455.69;5023540;28;20049;-83
2022/08/16 00:38:17;;;;;;;16.80;13.02;;;;;;;20.33;74.25;100451.81;5043421;28;20626;-84
2022/08/16 00:40:49;;;;;;;17.38;13.30;;;;;;;20.32;74.16;100461.19;5028225;28;20474;-83
2022/08/16 00:43:19;;;;;;;15.90;12.40;;;;;;;20.14;75.12;100454.41;5030389;28;20124;-84
2022/08/16 00:46:16;;;;;;;16.95;12.68;;;;;;;20.22;74.46;100462.06;5027996;28;20045;-82
2022/08/16 00:48:43;;;;;;;18.80;13.43;;;;;;;20.15;74.90;100456.88;5028306;28;20021;-84
2022/08/16 00:51:09;;;;;;;18.20;13.90;;;;;;;20.00;75.72;100466.06;5028325;28;20048;-82
2022/08/16 00:53:34;;;;;;;13.68;11.55;;;;;;;19.91;76.03;100462.28;5027238;28;20041;-86
2022/08/16 00:56:08;;;;;;;16.70;13.18;;;;;;;19.92;75.98;100469.41;5026024;28;20401;-84
2022/08/16 00:58:37;;;;;;;13.60;11.70;;;;;;;19.96;75.81;100467.72;5027802;28;20375;-82
2022/08/16 01:01:07;;;;;;;15.80;12.43;;;;;;;19.87;76.50;100474.97;5027652;28;20040;-82
2022/08/16 01:03:34;;;;;;;18.08;12.77;;;;;;;19.74;76.64;100471.66;5027278;28;20033;-85
2022/08/16 01:06:01;;;;;;;15.45;12.60;;;;;;;19.66;76.98;100475.00;5027591;28;21701;-83
2022/08/16 01:08:27;;;;;;;15.77;12.30;;;;;;;19.61;77.14;100469.56;5027639;28;20527;-84
2022/08/16 01:10:54;;;;;;;15.30;12.93;;;;;;;19.46;77.62;100467.69;5027481;28;20033;-84
2022/08/16 01:13:26;;;;;;;15.63;12.50;;;;;;;19.50;77.79;100470.69;5027953;28;20107;-85
2022/08/16 01:16:02;;;;;;;15.38;12.80;;;;;;;19.54;77.42;100456.13;5029130;28;20037;-84
2022/08/16 01:18:33;;;;;;;16.88;14.07;;;;;;;19.39;78.25;100458.91;5033677;28;20036;-83
2022/08/16 01:21:10;;;;;;;14.70;12.23;;;;;;;19.30;78.47;100468.84;5026829;28;20036;-83
2022/08/16 01:24:07;;;;;;;19.42;15.70;;;;;;;19.42;79.50;100474.00;5028283;28;20030;-84
2022/08/16 01:26:35;;;;;;;22.65;16.20;;;;;;;19.40;80.69;100466.88;5022683;28;20154;-82
2022/08/16 01:29:06;;;;;;;19.95;15.93;;;;;;;19.43;80.84;100467.41;5027507;28;21456;-83
2022/08/16 01:31:32;;;;;;;20.15;16.40;;;;;;;19.38;80.94;100454.53;5027487;28;20029;-82
2022/08/16 01:33:58;;;;;;;20.95;16.02;;;;;;;19.35;80.86;100464.16;5027802;28;20687;-82
2022/08/16 01:36:24;;;;;;;19.95;16.92;;;;;;;19.43;81.15;100461.94;5034336;28;20057;-83
2022/08/16 01:38:50;;;;;;;19.10;15.53;;;;;;;19.31;80.55;100454.00;5047054;28;20053;-85
2022/08/16 01:41:22;;;;;;;20.35;14.75;;;;;;;19.19;80.60;100465.31;5047406;28;20435;-82
2022/08/16 01:43:50;;;;;;;20.65;15.57;;;;;;;19.20;81.30;100458.69;5046716;28;20029;-84
2022/08/16 01:46:21;;;;;;;22.95;16.17;;;;;;;19.27;81.89;100459.25;5046246;28;20025;-83
2022/08/16 01:48:47;;;;;;;20.48;16.75;;;;;;;19.26;81.97;100470.47;5046981;28;20047;-84
2022/08/16 01:51:15;;;;;;;22.00;15.95;;;;;;;19.25;82.65;100455.94;5046407;28;20426;-86
2022/08/16 01:53:41;;;;;;;21.13;16.70;;;;;;;19.29;82.62;100469.94;5046156;28;20044;-83
2022/08/16 01:56:08;;;;;;;21.38;16.38;;;;;;;19.29;82.73;100464.47;5037857;28;20037;-83
2022/08/16 01:58:33;;;;;;;21.53;15.90;;;;;;;19.26;82.42;100463.09;5047049;28;20048;-82
2022/08/16 02:00:59;;;;;;;21.13;15.53;;;;;;;19.27;83.09;100459.25;5046479;28;20047;-82
2022/08/16 02:03:24;;;;;;;21.33;15.80;;;;;;;19.27;82.61;100459.25;5046023;28;20041;-81
2022/08/16 02:05:50;;;;;;;20.55;15.88;;;;;;;19.22;82.92;100456.50;5014025;28;20064;-82
2022/08/16 02:08:15;;;;;;;22.50;17.27;;;;;;;19.22;83.14;100462.00;5046037;28;20037;-83
2022/08/16 02:10:40;;;;;;;20.60;17.55;;;;;;;19.17;83.53;100462.81;5027881;28;20158;-82
2022/08/16 02:13:06;;;;;;;22.42;17.98;;;;;;;19.12;83.67;100459.28;5046354;28;20495;-82
2022/08/16 02:15:34;;;;;;;20.33;17.67;;;;;;;19.09;83.56;100459.84;5045670;28;20040;-85
2022/08/16 02:18:01;;;;;;;22.33;17.63;;;;;;;19.04;83.95;100456.00;5044916;28;20512;-83
2022/08/16 02:20:30;;;;;;;20.80;17.02;;;;;;;18.98;83.99;100457.09;5045827;28;20103;-84
2022/08/16 02:22:57;;;;;;;22.90;17.43;;;;;;;18.94;84.19;100450.53;5046648;28;20056;-84
2022/08/16 02:25:23;;;;;;;19.67;16.50;;;;;;;18.91;84.44;100445.59;5046107;28;20500;-83
2022/08/16 02:28:18;;;;;;;21.30;16.73;;;;;;;18.94;84.19;100458.75;5046380;28;20120;-83
2022/08/16 02:30:44;;;;;;;19.80;16.30;;;;;;;18.85;84.75;100457.66;5028939;28;20033;-82
2022/08/16 02:33:10;;;;;;;20.83;16.13;;;;;;;18.82;84.95;100458.19;5044970;28;20110;-82
2022/08/16 02:35:37;;;;;;;20.00;15.83;;;;;;;18.73;84.95;100461.50;5046037;28;20029;-82
2022/08/16 02:38:02;;;;;;;20.47;16.37;;;;;;;18.69;85.47;100460.41;5027077;28;20063;-82
2022/08/16 02:40:28;;;;;;;20.50;16.83;;;;;;;18.61;85.75;100452.75;5045417;28;20037;-83
2022/08/16 02:42:54;;;;;;;18.83;16.17;;;;;;;18.58;85.98;100471.66;5045842;28;20044;-82
2022/08/16 02:45:22;;;;;;;20.17;16.30;;;;;;;18.52;86.23;100465.34;5046393;28;20044;-82
2022/08/16 02:47:47;;;;;;;22.23;17.67;;;;;;;18.49;86.21;100460.44;5026540;28;20048;-81
2022/08/16 02:50:13;;;;;;;24.53;18.03;;;;;;;18.44;86.60;100465.91;5045421;28;20033;-83
2022/08/16 02:52:38;;;;;;;21.80;17.47;;;;;;;18.37;86.58;100458.78;5027775;28;20477;-83
2022/08/16 02:55:05;;;;;;;23.77;18.97;;;;;;;18.34;86.96;100453.00;5045161;28;20052;-83
2022/08/16 02:57:32;;;;;;;24.97;19.00;;;;;;;18.25;87.26;100455.50;5045031;28;20123;-84
2022/08/16 02:59:58;;;;;;;25.20;19.37;;;;;;;18.23;87.62;100452.19;5045163;28;20028;-80
2022/08/16 03:02:24;;;;;;;25.63;20.90;;;;;;;18.19;87.86;100445.59;5045857;28;20044;-82
2022/08/16 03:04:49;;;;;;;25.03;19.47;;;;;;;18.16;87.91;100454.38;5027376;28;20040;-86
2022/08/16 03:07:15;;;;;;;23.20;19.03;;;;;;;18.11;87.63;100443.41;5044421;28;20044;-84
2022/08/16 03:09:40;;;;;;;22.60;18.13;;;;;;;18.12;87.35;100445.06;5044796;28;20051;-85
2022/08/16 03:12:06;;;;;;;21.17;18.17;;;;;;;18.07;87.46;100436.81;5029785;28;20041;-86
2022/08/16 03:14:32;;;;;;;23.27;17.67;;;;;;;18.05;87.94;100440.66;5044554;28;20071;-85
2022/08/16 03:16:58;;;;;;;21.07;17.47;;;;;;;18.00;87.97;100442.56;5045534;28;20373;-85
2022/08/16 03:19:24;;;;;;;20.37;17.80;;;;;;;17.96;88.21;100439.53;5044932;28;20036;-82
2022/08/16 03:21:49;;;;;;;20.77;16.90;;;;;;;17.94;87.88;100444.47;5044896;28;20036;-83
2022/08/16 03:24:15;;;;;;;20.03;16.53;;;;;;;17.96;87.78;100431.31;5044807;28;20035;-84
2022/08/16 03:26:40;;;;;;;20.43;17.30;;;;;;;17.91;88.06;100442.25;5045078;28;20040;-85
2022/08/16 03:29:06;;;;;;;22.00;18.03;;;;;;;17.87;88.25;100438.41;5045327;28;20059;-84
2022/08/16 03:31:31;;;;;;;20.47;17.70;;;;;;;17.85;88.56;100446.06;5044183;28;20050;-82
2022/08/16 03:33:57;;;;;;;22.70;18.23;;;;;;;17.85;88.57;100440.56;5027105;28;20055;-82
2022/08/16 03:36:23;;;;;;;21.50;17.83;;;;;;;17.84;88.69;100447.16;5044050;28;20048;-83
2022/08/16 03:39:06;;;;;;;23.90;19.23;;;;;;;17.83;89.07;100440.03;5045038;28;20122;-83
2022/08/16 03:41:31;;;;;;;25.90;20.42;;;;;;;17.78;89.26;100448.25;5044615;28;20753;-82
2022/08/16 03:43:57;;;;;;;27.70;21.80;;;;;;;17.79;89.45;100449.88;5045362;28;20040;-82
2022/08/16 03:46:22;;;;;;;28.10;21.37;;;;;;;17.74;89.72;100455.34;5043893;28;20033;-84
2022/08/16 03:48:48;;;;;;;29.00;22.50;;;;;;;17.72;89.81;100453.69;5044556;28;20043;-82
2022/08/16 03:51:14;;;;;;;26.23;22.03;;;;;;;17.70;90.25;100455.88;5044557;28;20047;-83
2022/08/16 03:53:41;;;;;;;26.70;21.37;;;;;;;17.69;90.04;100465.22;5044478;28;20735;-81
2022/08/16 03:56:07;;;;;;;27.17;22.23;;;;;;;17.66;90.45;100462.97;5044366;28;20052;-85
2022/08/16 03:58:34;;;;;;;30.40;23.60;;;;;;;17.65;90.42;100466.84;5026130;28;20545;-82
2022/08/16 04:00:59;;;;;;;30.23;23.17;;;;;;;17.66;90.79;100471.19;5045004;28;20048;-82
2022/08/16 04:03:25;;;;;;;29.40;23.67;;;;;;;17.67;90.99;100474.78;5026509;28;20629;-83
2022/08/16 04:05:50;;;;;;;26.73;21.90;;;;;;;17.66;90.86;100473.94;5026048;28;20044;-84
2022/08/16 04:08:20;;;;;;;25.77;20.43;;;;;;;17.69;91.17;100484.38;5042822;28;20044;-84
2022/08/16 04:11:03;;;;;;;25.40;20.00;;;;;;;17.69;90.64;100487.13;5044356;28;20028;-84
2022/08/16 04:13:30;;;;;;;24.70;19.10;;;;;;;17.66;91.05;100481.34;5043763;28;20098;-85
2022/08/16 04:15:58;;;;;;;24.37;19.43;;;;;;;17.66;91.44;100487.63;5043579;28;21411;-82
2022/08/16 04:18:24;;;;;;;25.20;19.70;;;;;;;17.66;91.10;100489.56;5044521;28;20040;-82
2022/08/16 04:20:49;;;;;;;22.83;19.63;;;;;;;17.63;91.61;100487.38;5043961;28;20041;-82
2022/08/16 04:23:15;;;;;;;24.97;20.07;;;;;;;17.65;91.44;100487.91;5044386;28;20037;-82
2022/08/16 04:25:40;;;;;;;25.63;18.97;;;;;;;17.65;91.63;100491.50;5044603;28;20036;-83
2022/08/16 04:28:06;;;;;;;25.53;20.10;;;;;;;17.67;91.50;100493.97;5024917;28;20151;-83
2022/08/16 04:30:32;;;;;;;23.97;19.80;;;;;;;17.67;91.37;100488.47;5044110;28;20032;-85
2022/08/16 04:32:58;;;;;;;24.87;19.50;;;;;;;17.68;90.79;100490.13;5025184;28;20041;-85
2022/08/16 04:35:24;;;;;;;25.83;20.43;;;;;;;17.67;91.29;100493.97;5024816;28;20041;-84
2022/08/16 04:37:56;;;;;;;25.70;21.20;;;;;;;17.70;91.25;100494.22;5043856;28;20056;-82
2022/08/16 04:40:23;;;;;;;27.57;21.70;;;;;;;17.75;91.46;100487.13;5044247;28;20495;-82
2022/08/16 04:42:49;;;;;;;25.07;20.37;;;;;;;17.73;90.99;100484.66;5043345;28;20141;-83
2022/08/16 04:45:16;;;;;;;27.03;20.93;;;;;;;17.72;91.43;100489.31;5043552;28;20029;-84
2022/08/16 04:47:42;;;;;;;25.93;21.00;;;;;;;17.75;91.22;100495.34;5043345;28;20032;-81
2022/08/16 04:50:17;;;;;;;25.97;21.13;;;;;;;17.75;91.46;100500.81;5043216;28;20041;-84
2022/08/16 04:52:46;;;;;;;27.30;21.90;;;;;;;17.77;91.58;100499.47;5028978;28;20037;-84
2022/08/16 04:55:16;;;;;;;26.37;21.53;;;;;;;17.77;91.11;100495.91;5043615;28;20064;-83
2022/08/16 04:57:42;;;;;;;26.67;22.17;;;;;;;17.80;91.35;100501.69;5042359;28;20245;-83
2022/08/16 05:00:11;;;;;;;28.13;22.80;;;;;;;17.83;91.66;100494.84;5024069;28;20029;-87
2022/08/16 05:02:38;;;;;;;25.80;22.53;;;;;;;17.80;91.69;100495.38;5028759;28;20044;-84
2022/08/16 05:05:04;;;;;;;26.83;22.87;;;;;;;17.83;91.52;100498.41;5044207;28;20399;-84
2022/08/16 05:07:29;;;;;;;26.50;23.53;;;;;;;17.86;91.45;100503.34;5043895;28;20043;-82
2022/08/16 05:09:54;;;;;;;27.63;24.67;;;;;;;17.90;91.61;100509.09;5042993;28;20029;-82
2022/08/16 05:12:20;;;;;;;27.30;24.27;;;;;;;17.91;91.63;100504.44;5041105;28;20573;-82
2022/08/16 05:14:45;;;;;;;29.07;24.50;;;;;;;17.94;91.50;100504.78;5025607;28;20502;-83
2022/08/16 05:17:10;;;;;;;29.33;25.67;;;;;;;18.04;90.89;100509.44;5042860;28;21029;-83
2022/08/16 05:19:36;;;;;;;26.80;23.90;;;;;;;18.09;91.05;100511.38;5043688;28;20040;-81
2022/08/16 05:22:01;;;;;;;28.23;23.70;;;;;;;18.11;90.27;100514.69;5046292;28;20174;-81
2022/08/16 05:24:26;;;;;;;30.37;23.33;;;;;;;18.12;90.00;100516.34;5046435;28;20036;-82
2022/08/16 05:26:52;;;;;;;27.00;23.20;;;;;;;18.09;90.74;100525.91;5047370;28;20472;-82
2022/08/16 05:29:17;;;;;;;28.20;23.67;;;;;;;18.13;90.68;100524.28;5046072;28;20801;-82
2022/08/16 05:31:43;;;;;;;26.93;23.40;;;;;;;18.16;90.39;100528.41;5045453;28;20040;-81
2022/08/16 05:34:08;;;;;;;29.23;25.30;;;;;;;18.21;90.13;100533.91;5044202;28;20055;-83
2022/08/16 05:36:33;;;;;;;28.40;24.97;;;;;;;18.27;89.97;100537.47;5046432;28;20056;-84
2022/08/16 05:38:59;;;;;;;29.43;24.07;;;;;;;18.29;89.63;100533.38;5046472;28;20068;-81
2022/08/16 05:41:24;;;;;;;29.57;25.50;;;;;;;18.31;89.62;100539.41;5046467;28;20033;-84
2022/08/16 05:43:53;;;;;;;28.73;25.10;;;;;;;18.33;89.36;100539.97;5046832;28;20044;-82
2022/08/16 05:46:18;;;;;;;28.00;25.00;;;;;;;18.39;89.35;100538.88;5046016;28;20660;-82
2022/08/16 05:48:44;;;;;;;29.80;25.25;;;;;;;18.45;89.07;100536.13;5046744;28;20028;-83
2022/08/16 05:51:10;;;;;;;29.03;24.33;;;;;;;18.48;88.76;100530.09;5045050;28;20054;-84
2022/08/16 05:53:36;;;;;;;30.27;26.33;;;;;;;18.59;88.19;100541.91;5045392;28;20052;-82
2022/08/16 05:56:02;;;;;;;31.47;26.17;;;;;;;18.62;88.31;100546.84;5047018;28;20060;-85
2022/08/16 05:58:27;;;;;;;28.23;25.33;;;;;;;18.68;88.15;100546.56;5046266;28;20033;-84
2022/08/16 06:00:53;;;;;;;28.75;25.50;;;;;;;18.75;87.72;100548.22;5046211;28;20033;-85
2022/08/16 06:03:18;;;;;;;29.17;25.27;;;;;;;18.80;86.74;100548.25;5046824;28;20025;-81
2022/08/16 06:05:44;;;;;;;26.27;23.45;;;;;;;18.84;85.90;100552.09;5045708;28;20037;-83
2022/08/16 06:08:09;;;;;;;27.52;24.20;;;;;;;18.86;85.49;100553.47;5028006;28;20507;-86
2022/08/16 06:10:34;;;;;;;28.27;24.13;;;;;;;18.97;85.50;100553.47;5045834;28;20047;-83
2022/08/16 06:13:00;;;;;;;29.10;23.90;;;;;;;19.02;84.87;100558.97;5045888;28;20107;-85
2022/08/16 06:15:26;;;;;;;25.80;23.00;;;;;;;19.11;84.14;100564.72;5045654;28;20118;-84
2022/08/16 06:17:51;;;;;;;26.97;23.57;;;;;;;19.16;83.59;100564.72;5046854;28;20033;-84
2022/08/16 06:20:20;;;;;;;27.08;23.75;;;;;;;19.26;83.63;100563.88;5045526;28;20120;-83
2022/08/16 06:22:45;;;;;;;26.77;23.42;;;;;;;19.30;82.70;100568.53;5045207;28;20081;-85
2022/08/16 06:25:11;;;;;;;27.40;22.40;;;;;;;19.39;82.47;100571.53;5046033;28;20415;-84
2022/08/16 06:27:38;;;;;;;26.97;23.17;;;;;;;19.49;82.16;100570.72;5044817;28;20024;-84
2022/08/16 06:30:06;;;;;;;24.63;21.25;;;;;;;19.60;81.66;100574.25;5045132;28;20045;-89
2022/08/16 06:32:31;;;;;;;25.67;21.35;;;;;;;19.68;81.12;100566.25;5044590;28;20037;-83
2022/08/16 06:34:56;;;;;;;24.73;21.25;;;;;;;19.77;80.65;100571.19;5045901;28;20704;-82
2022/08/16 06:37:23;;;;;;;24.27;21.40;;;;;;;19.86;79.76;100575.03;5042915;28;20178;-84
2022/08/16 06:39:48;;;;;;;24.23;20.95;;;;;;;19.85;78.29;100579.69;5044220;28;20506;-84
2022/08/16 06:42:13;;;;;;;23.50;21.00;;;;;;;20.00;78.65;100570.53;5045710;28;20068;-84
2022/08/16 06:44:39;;;;;;;24.30;21.70;;;;;;;20.03;78.55;100561.75;5045540;28;20127;-82
2022/08/16 06:47:04;;;;;;;26.42;21.23;;;;;;;20.14;78.13;100569.94;5026056;28;20140;-83
2022/08/16 06:49:29;;;;;;;23.45;20.38;;;;;;;20.25;77.51;100566.03;5035508;28;20155;-83
2022/08/16 06:51:55;;;;;;;23.02;20.60;;;;;;;20.35;76.95;100570.66;5045441;28;20090;-85
2022/08/16 06:54:20;;;;;;;26.10;21.65;;;;;;;20.41;75.98;100570.34;5043173;28;20159;-83
2022/08/16 06:56:46;;;;;;;25.25;19.95;;;;;;;20.48;76.09;100571.94;5043890;28;20037;-86
2022/08/16 06:59:11;;;;;;;23.52;20.17;;;;;;;20.56;75.84;100577.69;5045159;28;20033;-84
2022/08/16 07:01:37;;;;;;;22.90;19.83;;;;;;;20.59;75.35;100581.81;5028763;28;21100;-85
2022/08/16 07:04:02;;;;;;;24.27;20.02;;;;;;;20.73;75.28;100574.56;5028925;28;20041;-83
2022/08/16 07:06:30;;;;;;;23.10;19.60;;;;;;;20.80;75.08;100582.50;5045262;28;20041;-85
2022/08/16 07:08:56;;;;;;;25.20;20.55;;;;;;;20.81;74.21;100581.38;5045020;28;20033;-83
2022/08/16 07:11:21;;;;;;;23.65;20.98;;;;;;;20.85;74.06;100585.22;5045211;28;20039;-82
2022/08/16 07:13:47;;;;;;;23.88;20.25;;;;;;;20.97;74.41;100579.34;5044285;28;22128;-84
2022/08/16 07:16:15;;;;;;;25.30;20.67;;;;;;;21.03;74.14;100580.91;5045033;28;20035;-87
2022/08/16 07:18:42;;;;;;;24.77;19.77;;;;;;;21.12;73.31;100588.56;5045252;28;20033;-84
2022/08/16 07:21:08;;;;;;;22.88;18.83;;;;;;;21.34;73.54;100593.63;5044818;28;20025;-84
2022/08/16 07:23:36;;;;;;;24.17;20.35;;;;;;;21.37;73.00;100595.78;5045195;28;20048;-82
2022/08/16 07:26:04;;;;;;;23.30;20.42;;;;;;;21.39;72.82;100585.28;5045333;28;20087;-84
2022/08/16 07:28:29;;;;;;;23.10;19.35;;;;;;;21.59;72.92;100587.84;5043406;28;20644;-83
2022/08/16 07:30:55;;;;;;;23.83;19.83;;;;;;;21.69;72.20;100592.44;5027112;28;20048;-88
2022/08/16 07:33:21;;;;;;;23.75;20.48;;;;;;;21.69;71.25;100600.72;5026554;28;20045;-86
2022/08/16 07:35:46;;;;;;;22.67;18.70;;;;;;;21.91;71.54;100602.13;5044134;28;20124;-84
2022/08/16 07:38:12;;;;;;;23.15;19.45;;;;;;;22.00;71.26;100611.38;5026990;28;20485;-85
2022/08/16 07:40:38;;;;;;;22.17;19.70;;;;;;;22.17;70.68;100612.84;5045334;28;20044;-89
2022/08/16 07:43:05;;;;;;;21.58;19.20;;;;;;;22.17;70.41;100618.38;5044652;28;20115;-85
2022/08/16 07:45:32;;;;;;;22.10;18.48;;;;;;;22.30;69.60;100617.59;5044464;28;20662;-83
2022/08/16 07:47:57;;;;;;;22.05;18.70;;;;;;;22.47;68.84;100619.09;5025820;28;20484;-84
2022/08/16 07:50:23;;;;;;;21.10;17.17;;;;;;;22.51;67.99;100620.16;5044997;28;20171;-82
2022/08/16 07:52:48;;;;;;;20.40;17.05;;;;;;;22.66;67.88;100616.34;5044067;28;20040;-80
2022/08/16 07:55:15;;;;;;;19.92;17.05;;;;;;;22.74;67.68;100615.66;5045019;28;20845;-83
2022/08/16 07:57:41;;;;;;;19.45;17.02;;;;;;;22.77;67.99;100618.63;5044167;28;20107;-84
2022/08/16 08:00:07;;;;;;;21.75;18.00;;;;;;;22.71;67.25;100613.47;5043691;28;20033;-83
2022/08/16 08:02:33;;;;;;;22.63;17.23;;;;;;;22.83;67.14;100613.03;5044658;28;20468;-86
2022/08/16 08:04:59;;;;;;;19.08;16.00;;;;;;;23.04;67.21;100621.81;5043966;28;20041;-83
2022/08/16 08:07:24;;;;;;;19.90;17.02;;;;;;;22.99;66.53;100611.66;5025964;28;20040;-82
2022/08/16 08:09:51;;;;;;;19.95;16.13;;;;;;;23.14;65.80;100620.84;5044181;28;20510;-82
2022/08/16 08:12:18;;;;;;;20.60;15.27;;;;;;;23.30;65.52;100624.19;5043805;28;20056;-82
2022/08/16 08:14:44;;;;;;;18.48;15.25;;;;;;;23.35;65.17;100616.63;5044065;28;20502;-84
2022/08/16 08:17:10;;;;;;;18.77;14.90;;;;;;;23.60;64.28;100608.97;5043845;28;20043;-84
2022/08/16 08:19:36;;;;;;;21.75;14.48;;;;;;;23.65;64.33;100633.78;5044063;28;20037;-86
2022/08/16 08:22:10;;;;;;;18.98;15.20;;;;;;;23.76;62.98;100623.34;5044160;28;20436;-82
2022/08/16 08:24:38;;;;;;;18.40;15.55;;;;;;;23.81;62.58;100636.22;5044253;28;20152;-82
2022/08/16 08:27:07;;;;;;;18.08;14.43;;;;;;;23.97;62.10;100637.59;5044219;28;20032;-84
2022/08/16 08:29:34;;;;;;;17.10;13.95;;;;;;;24.07;60.83;100642.94;5028978;28;20754;-84
2022/08/16 08:32:00;;;;;;;17.98;13.90;;;;;;;24.27;60.73;100638.94;5044093;28;20040;-84
2022/08/16 08:34:25;;;;;;;19.40;13.95;;;;;;;24.53;60.18;100643.06;5043107;28;20605;-87
2022/08/16 08:36:51;;;;;;;17.38;13.88;;;;;;;24.62;58.92;100627.38;5043590;28;20142;-81
2022/08/16 08:39:17;;;;;;;16.33;12.93;;;;;;;24.77;58.83;100634.53;5043673;28;20040;-83
2022/08/16 08:41:43;;;;;;;17.33;12.55;;;;;;;25.03;57.92;100636.69;5044386;28;21061;-82
2022/08/16 08:44:11;;;;;;;15.57;11.82;;;;;;;25.19;56.22;100634.34;5043479;28;20032;-81
2022/08/16 08:46:38;;;;;;;16.35;12.40;;;;;;;25.36;55.92;100628.94;5028794;28;20457;-82
2022/08/16 08:49:06;;;;;;;15.63;10.70;;;;;;;25.59;55.19;100638.06;5044365;28;20075;-83
2022/08/16 08:51:32;;;;;;;13.82;10.70;;;;;;;25.70;53.30;100638.56;5044774;28;20041;-80
2022/08/16 08:53:58;;;;;;;14.10;10.82;;;;;;;25.93;52.98;100646.81;5043431;28;20503;-82
2022/08/16 08:56:23;;;;;;;16.05;10.63;;;;;;;26.19;53.21;100644.16;5045638;28;20044;-84
2022/08/16 08:58:48;;;;;;;14.60;10.70;;;;;;;26.28;51.96;100642.22;5047995;28;20693;-84
2022/08/16 09:01:17;;;;;;;14.32;9.70;;;;;;;26.56;51.16;100650.28;5045990;28;20036;-84
2022/08/16 09:03:42;;;;;;;14.32;10.18;;;;;;;26.51;50.87;100649.63;5048058;28;20033;-82
2022/08/16 09:06:08;;;;;;;16.60;9.60;;;;;;;26.69;49.59;100647.69;5047557;28;22047;-85
2022/08/16 09:08:34;;;;;;;13.82;8.48;;;;;;;26.66;49.23;100651.94;5047181;28;20418;-85
2022/08/16 09:11:00;;;;;;;13.50;8.70;;;;;;;26.70;49.01;100640.97;5047543;28;20051;-82
2022/08/16 09:13:26;;;;;;;15.45;9.10;;;;;;;26.71;49.01;100651.81;5046966;28;20044;-83
2022/08/16 09:15:54;;;;;;;13.02;8.18;;;;;;;26.93;48.17;100650.81;5047564;28;20045;-83
2022/08/16 09:18:21;;;;;;;12.48;8.77;;;;;;;27.11;47.51;100654.38;5047551;28;20124;-83
2022/08/16 09:20:46;;;;;;;11.70;7.85;;;;;;;27.30;47.80;100658.78;5047674;28;20044;-86
2022/08/16 09:23:12;;;;;;;11.90;7.60;;;;;;;27.55;47.57;100659.91;5047176;28;20089;-81
2022/08/16 09:25:37;;;;;;;11.68;7.88;;;;;;;27.71;45.92;100662.94;5029809;28;20082;-84
2022/08/16 09:28:04;;;;;;;9.68;7.50;;;;;;;27.65;46.08;100666.25;5048112;28;20033;-85
2022/08/16 09:30:33;;;;;;;12.10;7.50;;;;;;;27.65;45.91;100669.88;5046387;28;20079;-83
2022/08/16 09:32:58;;;;;;;12.05;7.10;;;;;;;27.93;45.60;100670.25;5047738;28;20385;-83
2022/08/16 09:35:23;;;;;;;11.55;7.82;;;;;;;27.84;45.57;100665.84;5047021;28;20129;-84
2022/08/16 09:37:49;;;;;;;10.55;7.15;;;;;;;28.06;44.85;100660.06;5032546;28;20143;-80
2022/08/16 09:40:14;;;;;;;10.52;6.80;;;;;;;28.35;45.12;100675.13;5046939;28;20080;-83
2022/08/16 09:42:40;;;;;;;9.18;6.22;;;;;;;28.52;44.24;100667.81;5046925;28;20607;-83
2022/08/16 09:45:07;;;;;;;11.82;6.50;;;;;;;28.57;43.80;100665.66;5046710;28;20047;-84
2022/08/16 09:47:39;;;;;;;14.48;7.80;;;;;;;28.41;43.62;100671.00;5027105;28;20032;-84
2022/08/16 09:50:13;;;;;;;8.43;6.70;;;;;;;28.46;43.01;100665.25;5046553;28;20342;-83
2022/08/16 09:52:39;;;;;;;7.88;6.38;;;;;;;28.37;42.81;100667.25;5046203;28;20024;-82
2022/08/16 09:55:07;;;;;;;8.07;6.80;;;;;;;28.53;43.30;100675.84;5046544;28;20037;-86
2022/08/16 09:57:32;;;;;;;7.47;5.97;;;;;;;28.75;42.70;100674.72;5037548;28;20037;-83
2022/08/16 09:59:59;;;;;;;7.40;5.40;;;;;;;28.99;41.50;100670.44;5046188;28;20124;-84
2022/08/16 10:02:25;;;;;;;7.75;5.07;;;;;;;29.14;40.40;100668.97;5046830;28;20131;-82
2022/08/16 10:04:50;;;;;;;8.10;5.60;;;;;;;29.12;40.21;100663.75;5046806;28;20386;-83
2022/08/16 10:07:16;;;;;;;7.40;5.30;;;;;;;29.05;40.24;100662.66;5045759;28;20448;-85
2022/08/16 10:09:45;;;;;;;9.90;6.13;;;;;;;29.29;40.00;100670.34;5046435;28;20037;-82
2022/08/16 10:14:54;;;;;;;10.65;5.30;;;;;;;29.29;39.16;100673.97;5046648;28;20102;-85
2022/08/16 10:17:20;;;;;;;7.75;5.20;;;;;;;29.43;39.22;100673.66;5046263;28;20037;-84
2022/08/16 10:19:46;;;;;;;8.00;5.40;;;;;;;29.47;38.74;100677.38;5046379;28;20033;-86
2022/08/16 10:22:12;;;;;;;9.45;5.57;;;;;;;29.27;39.18;100675.47;5045961;28;20037;-88
2022/08/16 10:24:39;;;;;;;9.07;5.50;;;;;;;29.41;39.41;100667.59;5045582;28;20063;-86
2022/08/16 10:27:04;;;;;;;7.53;5.43;;;;;;;29.41;39.22;100673.16;5031367;28;20040;-87
2022/08/16 10:29:30;;;;;;;5.43;4.93;;;;;;;29.65;38.68;100668.81;5045628;28;20068;-84
2022/08/16 10:31:55;;;;;;;6.85;5.07;;;;;;;29.68;38.18;100679.28;5046251;28;20029;-84
2022/08/16 10:34:21;;;;;;;8.77;5.10;;;;;;;29.66;37.30;100686.38;5045492;28;20488;-85
2022/08/16 10:36:47;;;;;;;6.30;5.10;;;;;;;29.55;37.65;100672.03;5045159;28;20056;-84
2022/08/16 10:39:12;;;;;;;9.98;4.75;;;;;;;29.70;38.20;100671.38;5044447;28;20055;-83
2022/08/16 10:41:37;;;;;;;8.70;4.63;;;;;;;29.86;37.74;100674.31;5045875;28;20036;-83
2022/08/16 10:44:03;;;;;;;8.05;5.13;;;;;;;30.07;37.90;100670.59;5027685;28;20028;-85
2022/08/16 10:46:29;;;;;;;8.15;4.97;;;;;;;30.21;38.17;100673.06;5045866;28;20033;-86
2022/08/16 10:48:55;;;;;;;8.23;5.00;;;;;;;30.04;37.85;100676.91;5045455;28;20041;-82
2022/08/16 10:51:20;;;;;;;9.55;5.28;;;;;;;29.57;37.54;100680.91;5045097;28;20384;-84
2022/08/16 10:53:46;;;;;;;9.77;5.22;;;;;;;29.62;38.51;100683.44;5036967;28;20163;-89
2022/08/16 10:56:12;;;;;;;6.80;4.88;;;;;;;29.87;38.33;100677.97;5045359;28;21557;-83
2022/08/16 10:58:39;;;;;;;8.25;5.13;;;;;;;29.90;37.28;100677.25;5044833;28;20048;-81
2022/08/16 11:01:07;;;;;;;9.18;4.53;;;;;;;30.02;38.31;100682.03;5044532;28;20035;-87
2022/08/16 11:03:33;;;;;;;5.35;4.60;;;;;;;29.96;36.35;100693.44;5045932;28;20079;-85
2022/08/16 11:05:59;;;;;;;24.08;5.07;;;;;;;29.97;36.17;100686.69;5045250;28;20068;-85
2022/08/16 11:08:25;;;;;;;8.75;4.40;;;;;;;30.11;37.06;100691.09;5045151;28;20044;-82
2022/08/16 11:10:50;;;;;;;9.52;4.40;;;;;;;30.15;36.02;100686.44;5045464;28;20072;-83
2022/08/16 11:13:19;;;;;;;9.23;4.70;;;;;;;30.04;35.92;100679.69;5025873;28;20040;-84